sensor_id;sensor_type;location;lat;lon;timestamp;P1;durP1;ratioP1;P2;durP2;ratioP2
2474;SDS011;1248;48.694;10.160;2024-03-06T00:01:57;12.13;;;9.10;;
2474;SDS011;1248;48.694;10.160;2024-03-06T00:04:24;12.70;;;9.43;;
2474;SDS011;1248;48.694;10.160;2024-03-06T00:06:51;14.73;;;9.70;;
2474;SDS011;1248;48.694;10.160;2024-03-06T00:09:21;12.77;;;9.40;;
2474;SDS011;1248;48.694;10.160;2024-03-06T00:11:48;13.50;;;10.10;;
2474;SDS011;1248;48.694;10.160;2024-03-06T00:14:17;9.60;;;8.27;;
2474;SDS011;1248;48.694;10.160;2024-03-06T00:16:45;13.93;;;9.57;;
2474;SDS011;1248;48.694;10.160;2024-03-06T00:19:12;11.67;;;8.87;;
2474;SDS011;1248;48.694;10.160;2024-03-06T00:21:39;12.20;;;9.20;;
2474;SDS011;1248;48.694;10.160;2024-03-06T00:24:06;11.57;;;9.47;;
2474;SDS011;1248;48.694;10.160;2024-03-06T00:26:35;13.40;;;9.07;;
2474;SDS011;1248;48.694;10.160;2024-03-06T00:29:02;19.73;;;8.70;;
2474;SDS011;1248;48.694;10.160;2024-03-06T00:31:29;12.07;;;9.80;;
2474;SDS011;1248;48.694;10.160;2024-03-06T00:33:56;12.80;;;7.90;;
2474;SDS011;1248;48.694;10.160;2024-03-06T00:36:23;11.03;;;8.13;;
2474;SDS011;1248;48.694;10.160;2024-03-06T00:38:50;9.03;;;7.63;;
2474;SDS011;1248;48.694;10.160;2024-03-06T00:41:17;10.47;;;8.27;;
2474;SDS011;1248;48.694;10.160;2024-03-06T00:43:46;10.27;;;7.53;;
2474;SDS011;1248;48.694;10.160;2024-03-06T00:46:13;9.80;;;7.97;;
2474;SDS011;1248;48.694;10.160;2024-03-06T00:48:40;16.97;;;9.17;;
2474;SDS011;1248;48.694;10.160;2024-03-06T00:51:07;8.40;;;7.33;;
2474;SDS011;1248;48.694;10.160;2024-03-06T00:53:35;15.90;;;10.27;;
2474;SDS011;1248;48.694;10.160;2024-03-06T00:56:02;11.33;;;9.07;;
2474;SDS011;1248;48.694;10.160;2024-03-06T00:58:29;9.23;;;7.87;;
2474;SDS011;1248;48.694;10.160;2024-03-06T01:00:58;13.90;;;9.10;;
2474;SDS011;1248;48.694;10.160;2024-03-06T01:03:25;14.23;;;9.93;;
2474;SDS011;1248;48.694;10.160;2024-03-06T01:05:52;11.97;;;8.60;;
2474;SDS011;1248;48.694;10.160;2024-03-06T01:08:21;14.93;;;9.77;;
2474;SDS011;1248;48.694;10.160;2024-03-06T01:10:50;13.10;;;9.30;;
2474;SDS011;1248;48.694;10.160;2024-03-06T01:13:17;16.53;;;11.20;;
2474;SDS011;1248;48.694;10.160;2024-03-06T01:15:44;27.63;;;11.63;;
2474;SDS011;1248;48.694;10.160;2024-03-06T01:18:13;13.47;;;9.63;;
2474;SDS011;1248;48.694;10.160;2024-03-06T01:20:40;20.67;;;11.53;;
2474;SDS011;1248;48.694;10.160;2024-03-06T01:23:07;14.33;;;11.10;;
2474;SDS011;1248;48.694;10.160;2024-03-06T01:25:34;22.60;;;11.77;;
2474;SDS011;1248;48.694;10.160;2024-03-06T01:28:01;17.17;;;12.43;;
2474;SDS011;1248;48.694;10.160;2024-03-06T01:30:29;19.63;;;11.70;;
2474;SDS011;1248;48.694;10.160;2024-03-06T01:32:56;17.93;;;12.00;;
2474;SDS011;1248;48.694;10.160;2024-03-06T01:35:25;19.30;;;11.70;;
2474;SDS011;1248;48.694;10.160;2024-03-06T01:37:52;20.73;;;12.83;;
2474;SDS011;1248;48.694;10.160;2024-03-06T01:40:19;21.50;;;13.70;;
2474;SDS011;1248;48.694;10.160;2024-03-06T01:42:46;21.00;;;14.00;;
2474;SDS011;1248;48.694;10.160;2024-03-06T01:45:13;20.27;;;13.07;;
2474;SDS011;1248;48.694;10.160;2024-03-06T01:47:40;18.60;;;13.40;;
2474;SDS011;1248;48.694;10.160;2024-03-06T01:50:08;22.73;;;13.63;;
2474;SDS011;1248;48.694;10.160;2024-03-06T01:52:37;19.57;;;12.27;;
2474;SDS011;1248;48.694;10.160;2024-03-06T01:55:05;21.40;;;11.70;;
2474;SDS011;1248;48.694;10.160;2024-03-06T01:57:33;20.43;;;14.00;;
2474;SDS011;1248;48.694;10.160;2024-03-06T02:00:00;25.60;;;13.27;;
2474;SDS011;1248;48.694;10.160;2024-03-06T02:02:28;15.63;;;12.67;;
2474;SDS011;1248;48.694;10.160;2024-03-06T02:04:55;24.13;;;15.20;;
2474;SDS011;1248;48.694;10.160;2024-03-06T02:07:25;18.43;;;13.20;;
2474;SDS011;1248;48.694;10.160;2024-03-06T02:09:53;22.23;;;14.93;;
2474;SDS011;1248;48.694;10.160;2024-03-06T02:12:20;23.17;;;14.80;;
2474;SDS011;1248;48.694;10.160;2024-03-06T02:14:48;19.07;;;13.23;;
2474;SDS011;1248;48.694;10.160;2024-03-06T02:17:15;19.43;;;14.60;;
2474;SDS011;1248;48.694;10.160;2024-03-06T02:19:43;16.40;;;13.77;;
2474;SDS011;1248;48.694;10.160;2024-03-06T02:22:12;19.00;;;13.20;;
2474;SDS011;1248;48.694;10.160;2024-03-06T02:24:42;19.30;;;12.40;;
2474;SDS011;1248;48.694;10.160;2024-03-06T02:27:10;19.60;;;12.50;;
2474;SDS011;1248;48.694;10.160;2024-03-06T02:29:37;14.17;;;10.90;;
2474;SDS011;1248;48.694;10.160;2024-03-06T02:32:05;17.30;;;13.33;;
2474;SDS011;1248;48.694;10.160;2024-03-06T02:34:34;22.87;;;12.70;;
2474;SDS011;1248;48.694;10.160;2024-03-06T02:37:01;19.13;;;12.23;;
2474;SDS011;1248;48.694;10.160;2024-03-06T02:39:30;16.27;;;11.83;;
2474;SDS011;1248;48.694;10.160;2024-03-06T02:41:57;17.93;;;12.20;;
2474;SDS011;1248;48.694;10.160;2024-03-06T02:44:24;18.47;;;13.03;;
2474;SDS011;1248;48.694;10.160;2024-03-06T02:46:51;17.90;;;12.60;;
2474;SDS011;1248;48.694;10.160;2024-03-06T02:49:18;18.63;;;12.30;;
2474;SDS011;1248;48.694;10.160;2024-03-06T02:51:45;18.67;;;13.30;;
2474;SDS011;1248;48.694;10.160;2024-03-06T02:54:12;14.80;;;11.43;;
2474;SDS011;1248;48.694;10.160;2024-03-06T02:56:41;25.90;;;11.67;;
2474;SDS011;1248;48.694;10.160;2024-03-06T02:59:08;17.00;;;12.10;;
2474;SDS011;1248;48.694;10.160;2024-03-06T03:01:35;18.27;;;13.00;;
2474;SDS011;1248;48.694;10.160;2024-03-06T03:04:02;17.90;;;13.37;;
2474;SDS011;1248;48.694;10.160;2024-03-06T03:06:29;17.10;;;11.50;;
2474;SDS011;1248;48.694;10.160;2024-03-06T03:08:56;19.17;;;13.30;;
2474;SDS011;1248;48.694;10.160;2024-03-06T03:11:23;19.77;;;12.33;;
2474;SDS011;1248;48.694;10.160;2024-03-06T03:13:51;17.43;;;12.00;;
2474;SDS011;1248;48.694;10.160;2024-03-06T03:16:18;21.57;;;12.40;;
2474;SDS011;1248;48.694;10.160;2024-03-06T03:18:46;18.73;;;12.00;;
2474;SDS011;1248;48.694;10.160;2024-03-06T03:21:13;21.63;;;11.73;;
2474;SDS011;1248;48.694;10.160;2024-03-06T03:23:40;18.30;;;13.57;;
2474;SDS011;1248;48.694;10.160;2024-03-06T03:26:07;17.13;;;12.13;;
2474;SDS011;1248;48.694;10.160;2024-03-06T03:28:37;19.60;;;12.10;;
2474;SDS011;1248;48.694;10.160;2024-03-06T03:31:06;19.30;;;12.33;;
2474;SDS011;1248;48.694;10.160;2024-03-06T03:33:34;19.07;;;13.00;;
2474;SDS011;1248;48.694;10.160;2024-03-06T03:36:04;18.07;;;12.83;;
2474;SDS011;1248;48.694;10.160;2024-03-06T03:38:32;19.30;;;12.90;;
2474;SDS011;1248;48.694;10.160;2024-03-06T03:41:01;22.17;;;13.60;;
2474;SDS011;1248;48.694;10.160;2024-03-06T03:43:29;20.87;;;13.40;;
2474;SDS011;1248;48.694;10.160;2024-03-06T03:45:58;24.33;;;14.70;;
2474;SDS011;1248;48.694;10.160;2024-03-06T03:48:26;22.77;;;13.43;;
2474;SDS011;1248;48.694;10.160;2024-03-06T03:50:53;23.83;;;15.00;;
2474;SDS011;1248;48.694;10.160;2024-03-06T03:53:20;21.10;;;13.47;;
2474;SDS011;1248;48.694;10.160;2024-03-06T03:55:47;21.90;;;14.03;;
2474;SDS011;1248;48.694;10.160;2024-03-06T03:58:14;19.97;;;13.80;;
2474;SDS011;1248;48.694;10.160;2024-03-06T04:00:41;21.10;;;14.40;;
2474;SDS011;1248;48.694;10.160;2024-03-06T04:03:09;23.03;;;13.67;;
2474;SDS011;1248;48.694;10.160;2024-03-06T04:05:37;20.80;;;13.30;;
2474;SDS011;1248;48.694;10.160;2024-03-06T04:08:04;19.63;;;13.87;;
2474;SDS011;1248;48.694;10.160;2024-03-06T04:10:32;22.13;;;13.23;;
2474;SDS011;1248;48.694;10.160;2024-03-06T04:12:59;27.10;;;14.87;;
2474;SDS011;1248;48.694;10.160;2024-03-06T04:15:26;25.47;;;13.63;;
2474;SDS011;1248;48.694;10.160;2024-03-06T04:17:53;19.03;;;13.50;;
2474;SDS011;1248;48.694;10.160;2024-03-06T04:20:20;22.73;;;15.30;;
2474;SDS011;1248;48.694;10.160;2024-03-06T04:22:49;20.40;;;13.80;;
2474;SDS011;1248;48.694;10.160;2024-03-06T04:25:17;19.53;;;12.93;;
2474;SDS011;1248;48.694;10.160;2024-03-06T04:27:44;19.50;;;13.27;;
2474;SDS011;1248;48.694;10.160;2024-03-06T04:30:12;26.50;;;15.20;;
2474;SDS011;1248;48.694;10.160;2024-03-06T04:32:39;17.83;;;13.50;;
2474;SDS011;1248;48.694;10.160;2024-03-06T04:35:06;22.60;;;13.37;;
2474;SDS011;1248;48.694;10.160;2024-03-06T04:37:34;20.20;;;12.87;;
2474;SDS011;1248;48.694;10.160;2024-03-06T04:40:04;23.83;;;13.77;;
2474;SDS011;1248;48.694;10.160;2024-03-06T04:42:33;24.17;;;14.30;;
2474;SDS011;1248;48.694;10.160;2024-03-06T04:45:01;26.23;;;14.47;;
2474;SDS011;1248;48.694;10.160;2024-03-06T04:47:29;21.67;;;14.50;;
2474;SDS011;1248;48.694;10.160;2024-03-06T04:49:57;25.47;;;14.60;;
2474;SDS011;1248;48.694;10.160;2024-03-06T04:52:24;22.73;;;14.13;;
2474;SDS011;1248;48.694;10.160;2024-03-06T04:54:51;22.43;;;15.90;;
2474;SDS011;1248;48.694;10.160;2024-03-06T04:57:20;21.43;;;15.20;;
2474;SDS011;1248;48.694;10.160;2024-03-06T04:59:47;26.30;;;15.97;;
2474;SDS011;1248;48.694;10.160;2024-03-06T05:02:14;23.50;;;14.90;;
2474;SDS011;1248;48.694;10.160;2024-03-06T05:04:41;26.13;;;15.67;;
2474;SDS011;1248;48.694;10.160;2024-03-06T05:07:08;23.67;;;14.23;;
2474;SDS011;1248;48.694;10.160;2024-03-06T05:09:35;27.43;;;16.97;;
2474;SDS011;1248;48.694;10.160;2024-03-06T05:12:02;26.53;;;15.77;;
2474;SDS011;1248;48.694;10.160;2024-03-06T05:14:32;21.50;;;14.00;;
2474;SDS011;1248;48.694;10.160;2024-03-06T05:16:59;24.40;;;15.27;;
2474;SDS011;1248;48.694;10.160;2024-03-06T05:19:26;23.57;;;15.07;;
2474;SDS011;1248;48.694;10.160;2024-03-06T05:21:57;26.17;;;16.10;;
2474;SDS011;1248;48.694;10.160;2024-03-06T05:24:24;22.40;;;13.80;;
2474;SDS011;1248;48.694;10.160;2024-03-06T05:26:51;22.17;;;13.50;;
2474;SDS011;1248;48.694;10.160;2024-03-06T05:29:18;22.17;;;14.13;;
2474;SDS011;1248;48.694;10.160;2024-03-06T05:31:46;19.70;;;14.00;;
2474;SDS011;1248;48.694;10.160;2024-03-06T05:34:13;28.67;;;15.83;;
2474;SDS011;1248;48.694;10.160;2024-03-06T05:36:41;29.17;;;16.77;;
2474;SDS011;1248;48.694;10.160;2024-03-06T05:39:08;22.80;;;13.77;;
2474;SDS011;1248;48.694;10.160;2024-03-06T05:41:38;22.57;;;14.27;;
2474;SDS011;1248;48.694;10.160;2024-03-06T05:44:05;23.87;;;15.77;;
2474;SDS011;1248;48.694;10.160;2024-03-06T05:46:32;23.17;;;15.57;;
2474;SDS011;1248;48.694;10.160;2024-03-06T05:49:01;21.90;;;14.80;;
2474;SDS011;1248;48.694;10.160;2024-03-06T05:51:28;20.17;;;13.50;;
2474;SDS011;1248;48.694;10.160;2024-03-06T05:53:56;23.53;;;14.87;;
2474;SDS011;1248;48.694;10.160;2024-03-06T05:56:23;21.63;;;14.10;;
2474;SDS011;1248;48.694;10.160;2024-03-06T05:58:50;20.70;;;13.80;;
2474;SDS011;1248;48.694;10.160;2024-03-06T06:01:17;23.33;;;14.03;;
2474;SDS011;1248;48.694;10.160;2024-03-06T06:03:46;24.60;;;14.03;;
2474;SDS011;1248;48.694;10.160;2024-03-06T06:06:15;21.63;;;13.73;;
2474;SDS011;1248;48.694;10.160;2024-03-06T06:08:42;21.60;;;14.17;;
2474;SDS011;1248;48.694;10.160;2024-03-06T06:11:10;20.47;;;13.83;;
2474;SDS011;1248;48.694;10.160;2024-03-06T06:13:38;18.40;;;12.53;;
2474;SDS011;1248;48.694;10.160;2024-03-06T06:16:06;25.13;;;14.50;;
2474;SDS011;1248;48.694;10.160;2024-03-06T06:18:33;23.20;;;13.97;;
2474;SDS011;1248;48.694;10.160;2024-03-06T06:21:00;21.87;;;13.60;;
2474;SDS011;1248;48.694;10.160;2024-03-06T06:23:31;22.67;;;14.37;;
2474;SDS011;1248;48.694;10.160;2024-03-06T06:25:58;25.13;;;14.10;;
2474;SDS011;1248;48.694;10.160;2024-03-06T06:28:25;24.73;;;15.63;;
2474;SDS011;1248;48.694;10.160;2024-03-06T06:30:52;18.40;;;12.57;;
2474;SDS011;1248;48.694;10.160;2024-03-06T06:33:19;18.87;;;12.87;;
2474;SDS011;1248;48.694;10.160;2024-03-06T06:35:46;23.07;;;15.07;;
2474;SDS011;1248;48.694;10.160;2024-03-06T06:38:13;24.77;;;13.70;;
2474;SDS011;1248;48.694;10.160;2024-03-06T06:40:42;20.10;;;13.30;;
2474;SDS011;1248;48.694;10.160;2024-03-06T06:43:09;20.70;;;13.83;;
2474;SDS011;1248;48.694;10.160;2024-03-06T06:45:36;17.33;;;12.13;;
2474;SDS011;1248;48.694;10.160;2024-03-06T06:48:03;20.93;;;12.40;;
2474;SDS011;1248;48.694;10.160;2024-03-06T06:50:31;21.53;;;11.67;;
2474;SDS011;1248;48.694;10.160;2024-03-06T06:52:59;16.43;;;11.33;;
2474;SDS011;1248;48.694;10.160;2024-03-06T06:55:26;21.10;;;12.23;;
2474;SDS011;1248;48.694;10.160;2024-03-06T06:57:54;21.50;;;11.97;;
2474;SDS011;1248;48.694;10.160;2024-03-06T07:00:22;16.83;;;12.30;;
2474;SDS011;1248;48.694;10.160;2024-03-06T07:02:50;17.20;;;11.53;;
2474;SDS011;1248;48.694;10.160;2024-03-06T07:05:17;15.40;;;10.80;;
2474;SDS011;1248;48.694;10.160;2024-03-06T07:07:44;15.03;;;10.87;;
2474;SDS011;1248;48.694;10.160;2024-03-06T07:10:12;18.30;;;11.23;;
2474;SDS011;1248;48.694;10.160;2024-03-06T07:12:40;17.17;;;12.53;;
2474;SDS011;1248;48.694;10.160;2024-03-06T07:15:08;21.77;;;11.80;;
2474;SDS011;1248;48.694;10.160;2024-03-06T07:17:36;20.03;;;12.30;;
2474;SDS011;1248;48.694;10.160;2024-03-06T07:20:03;18.50;;;12.67;;
2474;SDS011;1248;48.694;10.160;2024-03-06T07:22:32;19.20;;;12.43;;
2474;SDS011;1248;48.694;10.160;2024-03-06T07:24:59;20.67;;;12.80;;
2474;SDS011;1248;48.694;10.160;2024-03-06T07:27:26;22.93;;;14.20;;
2474;SDS011;1248;48.694;10.160;2024-03-06T07:29:54;23.70;;;14.20;;
2474;SDS011;1248;48.694;10.160;2024-03-06T07:32:22;28.83;;;16.67;;
2474;SDS011;1248;48.694;10.160;2024-03-06T07:34:49;27.47;;;17.27;;
2474;SDS011;1248;48.694;10.160;2024-03-06T07:37:16;24.47;;;15.70;;
2474;SDS011;1248;48.694;10.160;2024-03-06T07:39:43;20.23;;;13.40;;
2474;SDS011;1248;48.694;10.160;2024-03-06T07:42:11;21.73;;;12.27;;
2474;SDS011;1248;48.694;10.160;2024-03-06T07:44:38;26.73;;;14.43;;
2474;SDS011;1248;48.694;10.160;2024-03-06T07:47:05;18.30;;;13.13;;
2474;SDS011;1248;48.694;10.160;2024-03-06T07:49:34;24.60;;;13.87;;
2474;SDS011;1248;48.694;10.160;2024-03-06T07:52:01;24.03;;;14.17;;
2474;SDS011;1248;48.694;10.160;2024-03-06T07:54:29;23.10;;;12.80;;
2474;SDS011;1248;48.694;10.160;2024-03-06T07:56:56;19.03;;;12.40;;
2474;SDS011;1248;48.694;10.160;2024-03-06T07:59:23;20.83;;;11.50;;
2474;SDS011;1248;48.694;10.160;2024-03-06T08:01:50;20.73;;;11.93;;
2474;SDS011;1248;48.694;10.160;2024-03-06T08:04:18;18.47;;;11.40;;
2474;SDS011;1248;48.694;10.160;2024-03-06T08:06:46;15.10;;;11.00;;
2474;SDS011;1248;48.694;10.160;2024-03-06T08:09:13;16.50;;;10.77;;
2474;SDS011;1248;48.694;10.160;2024-03-06T08:11:42;16.60;;;11.23;;
2474;SDS011;1248;48.694;10.160;2024-03-06T08:14:09;18.53;;;11.30;;
2474;SDS011;1248;48.694;10.160;2024-03-06T08:16:36;14.87;;;11.40;;
2474;SDS011;1248;48.694;10.160;2024-03-06T08:19:04;16.70;;;9.27;;
2474;SDS011;1248;48.694;10.160;2024-03-06T08:21:30;18.97;;;11.00;;
2474;SDS011;1248;48.694;10.160;2024-03-06T08:23:59;15.90;;;10.80;;
2474;SDS011;1248;48.694;10.160;2024-03-06T08:26:26;19.33;;;10.97;;
2474;SDS011;1248;48.694;10.160;2024-03-06T08:28:53;19.17;;;11.43;;
2474;SDS011;1248;48.694;10.160;2024-03-06T08:31:20;16.43;;;10.50;;
2474;SDS011;1248;48.694;10.160;2024-03-06T08:33:47;19.53;;;10.93;;
2474;SDS011;1248;48.694;10.160;2024-03-06T08:36:14;19.80;;;11.37;;
2474;SDS011;1248;48.694;10.160;2024-03-06T08:38:41;18.77;;;11.27;;
2474;SDS011;1248;48.694;10.160;2024-03-06T08:41:09;17.50;;;11.63;;
2474;SDS011;1248;48.694;10.160;2024-03-06T08:43:37;18.47;;;11.07;;
2474;SDS011;1248;48.694;10.160;2024-03-06T08:46:04;19.67;;;12.83;;
2474;SDS011;1248;48.694;10.160;2024-03-06T08:48:31;18.73;;;11.57;;
2474;SDS011;1248;48.694;10.160;2024-03-06T08:50:58;21.00;;;12.00;;
2474;SDS011;1248;48.694;10.160;2024-03-06T08:53:25;15.87;;;10.50;;
2474;SDS011;1248;48.694;10.160;2024-03-06T08:55:52;18.47;;;12.23;;
2474;SDS011;1248;48.694;10.160;2024-03-06T08:58:20;15.00;;;11.67;;
2474;SDS011;1248;48.694;10.160;2024-03-06T09:00:47;19.23;;;12.03;;
2474;SDS011;1248;48.694;10.160;2024-03-06T09:03:14;15.00;;;10.77;;
2474;SDS011;1248;48.694;10.160;2024-03-06T09:05:42;15.50;;;10.77;;
2474;SDS011;1248;48.694;10.160;2024-03-06T09:08:09;15.37;;;9.07;;
2474;SDS011;1248;48.694;10.160;2024-03-06T09:10:37;16.47;;;10.10;;
2474;SDS011;1248;48.694;10.160;2024-03-06T09:13:04;16.13;;;9.70;;
2474;SDS011;1248;48.694;10.160;2024-03-06T09:15:33;16.53;;;10.33;;
2474;SDS011;1248;48.694;10.160;2024-03-06T09:18:00;15.47;;;10.03;;
2474;SDS011;1248;48.694;10.160;2024-03-06T09:20:28;16.07;;;10.00;;
2474;SDS011;1248;48.694;10.160;2024-03-06T09:22:57;15.97;;;10.13;;
2474;SDS011;1248;48.694;10.160;2024-03-06T09:25:25;16.43;;;9.83;;
2474;SDS011;1248;48.694;10.160;2024-03-06T09:27:52;14.67;;;10.60;;
2474;SDS011;1248;48.694;10.160;2024-03-06T09:30:19;15.97;;;9.53;;
2474;SDS011;1248;48.694;10.160;2024-03-06T09:32:48;15.57;;;10.20;;
2474;SDS011;1248;48.694;10.160;2024-03-06T09:35:15;17.77;;;10.50;;
2474;SDS011;1248;48.694;10.160;2024-03-06T09:37:44;17.03;;;11.53;;
2474;SDS011;1248;48.694;10.160;2024-03-06T09:40:16;18.77;;;11.80;;
2474;SDS011;1248;48.694;10.160;2024-03-06T09:42:46;18.73;;;10.30;;
2474;SDS011;1248;48.694;10.160;2024-03-06T09:45:13;17.87;;;10.40;;
2474;SDS011;1248;48.694;10.160;2024-03-06T09:47:40;20.23;;;11.27;;
2474;SDS011;1248;48.694;10.160;2024-03-06T09:50:09;18.17;;;11.27;;
2474;SDS011;1248;48.694;10.160;2024-03-06T09:52:37;20.23;;;11.20;;
2474;SDS011;1248;48.694;10.160;2024-03-06T09:55:06;18.43;;;10.53;;
2474;SDS011;1248;48.694;10.160;2024-03-06T09:57:35;18.93;;;11.40;;
2474;SDS011;1248;48.694;10.160;2024-03-06T10:00:02;13.07;;;9.77;;
2474;SDS011;1248;48.694;10.160;2024-03-06T10:02:34;15.73;;;9.87;;
2474;SDS011;1248;48.694;10.160;2024-03-06T10:05:04;20.27;;;12.17;;
2474;SDS011;1248;48.694;10.160;2024-03-06T10:07:33;14.53;;;10.20;;
2474;SDS011;1248;48.694;10.160;2024-03-06T10:10:00;20.87;;;13.87;;
2474;SDS011;1248;48.694;10.160;2024-03-06T10:12:27;18.00;;;12.60;;
2474;SDS011;1248;48.694;10.160;2024-03-06T10:14:56;15.47;;;10.70;;
2474;SDS011;1248;48.694;10.160;2024-03-06T10:17:23;10.90;;;8.77;;
2474;SDS011;1248;48.694;10.160;2024-03-06T10:19:52;15.83;;;9.40;;
2474;SDS011;1248;48.694;10.160;2024-03-06T10:22:19;12.80;;;8.90;;
2474;SDS011;1248;48.694;10.160;2024-03-06T10:24:48;13.73;;;9.87;;
2474;SDS011;1248;48.694;10.160;2024-03-06T10:27:15;15.10;;;10.00;;
2474;SDS011;1248;48.694;10.160;2024-03-06T10:29:44;15.90;;;8.77;;
2474;SDS011;1248;48.694;10.160;2024-03-06T10:32:16;14.30;;;9.40;;
2474;SDS011;1248;48.694;10.160;2024-03-06T10:34:44;20.07;;;10.10;;
2474;SDS011;1248;48.694;10.160;2024-03-06T10:37:11;11.30;;;9.00;;
2474;SDS011;1248;48.694;10.160;2024-03-06T10:39:39;21.57;;;9.90;;
2474;SDS011;1248;48.694;10.160;2024-03-06T10:42:12;18.67;;;10.00;;
2474;SDS011;1248;48.694;10.160;2024-03-06T10:44:41;17.23;;;10.63;;
2474;SDS011;1248;48.694;10.160;2024-03-06T10:47:12;15.60;;;9.93;;
2474;SDS011;1248;48.694;10.160;2024-03-06T10:49:40;18.53;;;9.37;;
2474;SDS011;1248;48.694;10.160;2024-03-06T10:52:08;19.40;;;10.37;;
2474;SDS011;1248;48.694;10.160;2024-03-06T10:54:36;11.33;;;8.43;;
2474;SDS011;1248;48.694;10.160;2024-03-06T10:57:07;12.33;;;8.30;;
2474;SDS011;1248;48.694;10.160;2024-03-06T10:59:36;15.30;;;10.40;;
2474;SDS011;1248;48.694;10.160;2024-03-06T11:02:03;12.57;;;8.17;;
2474;SDS011;1248;48.694;10.160;2024-03-06T11:04:31;15.93;;;10.70;;
2474;SDS011;1248;48.694;10.160;2024-03-06T11:06:59;14.07;;;9.03;;
2474;SDS011;1248;48.694;10.160;2024-03-06T11:09:27;13.10;;;9.10;;
2474;SDS011;1248;48.694;10.160;2024-03-06T11:11:55;13.37;;;9.70;;
2474;SDS011;1248;48.694;10.160;2024-03-06T11:14:22;13.60;;;9.30;;
2474;SDS011;1248;48.694;10.160;2024-03-06T11:16:57;12.90;;;9.20;;
2474;SDS011;1248;48.694;10.160;2024-03-06T11:19:26;13.63;;;8.90;;
2474;SDS011;1248;48.694;10.160;2024-03-06T11:21:54;13.37;;;8.53;;
2474;SDS011;1248;48.694;10.160;2024-03-06T11:24:21;12.30;;;8.80;;
2474;SDS011;1248;48.694;10.160;2024-03-06T11:26:55;11.93;;;8.60;;
2474;SDS011;1248;48.694;10.160;2024-03-06T11:29:24;15.70;;;8.47;;
2474;SDS011;1248;48.694;10.160;2024-03-06T11:32:02;11.30;;;8.23;;
2474;SDS011;1248;48.694;10.160;2024-03-06T11:34:32;14.17;;;10.00;;
2474;SDS011;1248;48.694;10.160;2024-03-06T11:36:59;13.60;;;7.90;;
2474;SDS011;1248;48.694;10.160;2024-03-06T11:39:29;12.53;;;8.53;;
2474;SDS011;1248;48.694;10.160;2024-03-06T11:42:02;17.67;;;10.00;;
2474;SDS011;1248;48.694;10.160;2024-03-06T11:44:31;10.47;;;6.80;;
2474;SDS011;1248;48.694;10.160;2024-03-06T11:47:00;12.03;;;8.00;;
2474;SDS011;1248;48.694;10.160;2024-03-06T11:49:29;9.40;;;7.87;;
2474;SDS011;1248;48.694;10.160;2024-03-06T11:52:00;10.13;;;6.63;;
2474;SDS011;1248;48.694;10.160;2024-03-06T11:54:27;12.77;;;7.83;;
2474;SDS011;1248;48.694;10.160;2024-03-06T11:56:56;12.77;;;8.07;;
2474;SDS011;1248;48.694;10.160;2024-03-06T11:59:23;11.47;;;7.90;;
2474;SDS011;1248;48.694;10.160;2024-03-06T12:01:51;11.67;;;7.67;;
2474;SDS011;1248;48.694;10.160;2024-03-06T12:04:21;13.70;;;9.40;;
2474;SDS011;1248;48.694;10.160;2024-03-06T12:06:50;13.50;;;8.63;;
2474;SDS011;1248;48.694;10.160;2024-03-06T12:09:17;14.73;;;9.17;;
2474;SDS011;1248;48.694;10.160;2024-03-06T12:11:44;14.33;;;9.17;;
2474;SDS011;1248;48.694;10.160;2024-03-06T12:14:14;11.50;;;8.83;;
2474;SDS011;1248;48.694;10.160;2024-03-06T12:16:43;13.27;;;9.27;;
2474;SDS011;1248;48.694;10.160;2024-03-06T12:19:10;15.83;;;8.83;;
2474;SDS011;1248;48.694;10.160;2024-03-06T12:21:39;16.33;;;9.00;;
2474;SDS011;1248;48.694;10.160;2024-03-06T12:24:07;19.20;;;10.30;;
2474;SDS011;1248;48.694;10.160;2024-03-06T12:29:03;15.67;;;9.30;;
2474;SDS011;1248;48.694;10.160;2024-03-06T12:31:32;21.93;;;10.57;;
2474;SDS011;1248;48.694;10.160;2024-03-06T12:34:00;14.70;;;9.90;;
2474;SDS011;1248;48.694;10.160;2024-03-06T12:36:28;16.23;;;9.57;;
2474;SDS011;1248;48.694;10.160;2024-03-06T12:38:58;13.03;;;10.20;;
2474;SDS011;1248;48.694;10.160;2024-03-06T12:41:26;17.03;;;11.93;;
2474;SDS011;1248;48.694;10.160;2024-03-06T12:43:54;16.60;;;10.60;;
2474;SDS011;1248;48.694;10.160;2024-03-06T12:46:22;15.90;;;9.20;;
2474;SDS011;1248;48.694;10.160;2024-03-06T12:48:51;15.60;;;9.77;;
2474;SDS011;1248;48.694;10.160;2024-03-06T12:51:18;16.60;;;9.50;;
2474;SDS011;1248;48.694;10.160;2024-03-06T12:53:45;17.07;;;10.50;;
2474;SDS011;1248;48.694;10.160;2024-03-06T12:56:14;15.43;;;9.87;;
2474;SDS011;1248;48.694;10.160;2024-03-06T12:58:42;15.70;;;10.87;;
2474;SDS011;1248;48.694;10.160;2024-03-06T13:01:09;17.27;;;11.07;;
2474;SDS011;1248;48.694;10.160;2024-03-06T13:03:36;21.87;;;11.20;;
2474;SDS011;1248;48.694;10.160;2024-03-06T13:06:03;23.10;;;11.87;;
2474;SDS011;1248;48.694;10.160;2024-03-06T13:08:31;18.20;;;11.90;;
2474;SDS011;1248;48.694;10.160;2024-03-06T13:10:58;18.87;;;12.20;;
2474;SDS011;1248;48.694;10.160;2024-03-06T13:13:27;22.67;;;12.90;;
2474;SDS011;1248;48.694;10.160;2024-03-06T13:15:55;25.40;;;13.70;;
2474;SDS011;1248;48.694;10.160;2024-03-06T13:18:23;28.17;;;14.47;;
2474;SDS011;1248;48.694;10.160;2024-03-06T13:20:52;24.90;;;15.03;;
2474;SDS011;1248;48.694;10.160;2024-03-06T13:23:19;34.03;;;14.40;;
2474;SDS011;1248;48.694;10.160;2024-03-06T13:25:48;31.77;;;15.80;;
2474;SDS011;1248;48.694;10.160;2024-03-06T13:28:15;31.67;;;17.77;;
2474;SDS011;1248;48.694;10.160;2024-03-06T13:30:43;35.40;;;15.30;;
2474;SDS011;1248;48.694;10.160;2024-03-06T13:33:10;32.50;;;18.27;;
2474;SDS011;1248;48.694;10.160;2024-03-06T13:35:37;42.53;;;17.43;;
2474;SDS011;1248;48.694;10.160;2024-03-06T13:38:04;26.40;;;15.23;;
2474;SDS011;1248;48.694;10.160;2024-03-06T13:40:31;37.17;;;17.33;;
2474;SDS011;1248;48.694;10.160;2024-03-06T13:42:58;33.20;;;17.17;;
2474;SDS011;1248;48.694;10.160;2024-03-06T13:45:26;32.63;;;18.73;;
2474;SDS011;1248;48.694;10.160;2024-03-06T13:47:55;32.27;;;17.60;;
2474;SDS011;1248;48.694;10.160;2024-03-06T13:50:22;30.47;;;17.03;;
2474;SDS011;1248;48.694;10.160;2024-03-06T13:52:51;38.60;;;17.13;;
2474;SDS011;1248;48.694;10.160;2024-03-06T13:55:18;32.13;;;16.70;;
2474;SDS011;1248;48.694;10.160;2024-03-06T13:57:45;34.50;;;17.50;;
2474;SDS011;1248;48.694;10.160;2024-03-06T14:00:12;28.30;;;16.07;;
2474;SDS011;1248;48.694;10.160;2024-03-06T14:02:42;30.87;;;16.80;;
2474;SDS011;1248;48.694;10.160;2024-03-06T14:05:12;35.10;;;16.97;;
2474;SDS011;1248;48.694;10.160;2024-03-06T14:07:40;40.57;;;19.30;;
2474;SDS011;1248;48.694;10.160;2024-03-06T14:10:07;38.10;;;18.47;;
2474;SDS011;1248;48.694;10.160;2024-03-06T14:12:36;35.20;;;18.30;;
2474;SDS011;1248;48.694;10.160;2024-03-06T14:15:03;36.67;;;18.30;;
2474;SDS011;1248;48.694;10.160;2024-03-06T14:17:34;44.83;;;18.80;;
2474;SDS011;1248;48.694;10.160;2024-03-06T14:20:01;38.27;;;16.80;;
2474;SDS011;1248;48.694;10.160;2024-03-06T14:22:30;37.50;;;18.50;;
2474;SDS011;1248;48.694;10.160;2024-03-06T14:24:57;30.27;;;17.80;;
2474;SDS011;1248;48.694;10.160;2024-03-06T14:27:24;41.33;;;19.50;;
2474;SDS011;1248;48.694;10.160;2024-03-06T14:29:51;43.60;;;19.63;;
2474;SDS011;1248;48.694;10.160;2024-03-06T14:32:19;34.80;;;18.10;;
2474;SDS011;1248;48.694;10.160;2024-03-06T14:34:46;40.53;;;18.97;;
2474;SDS011;1248;48.694;10.160;2024-03-06T14:37:13;36.80;;;18.63;;
2474;SDS011;1248;48.694;10.160;2024-03-06T14:39:42;37.80;;;17.53;;
2474;SDS011;1248;48.694;10.160;2024-03-06T14:42:09;34.40;;;18.07;;
2474;SDS011;1248;48.694;10.160;2024-03-06T14:44:36;41.73;;;19.20;;